createdAt,value
2018-09-04T00:01:57.632Z,12.13
2018-09-04T00:04:32.123Z,11.93
2018-09-04T00:07:06.489Z,12.23
2018-09-04T00:09:40.843Z,11.00
2018-09-04T00:12:15.089Z,10.97
2018-09-04T00:14:50.464Z,11.47
2018-09-04T00:17:24.834Z,11.03
2018-09-04T00:19:59.515Z,10.07
2018-09-04T00:22:34.632Z,10.23
2018-09-04T00:25:08.928Z,10.87
2018-09-04T00:27:43.284Z,11.63
2018-09-04T00:30:17.837Z,11.90
2018-09-04T00:32:52.541Z,11.37
2018-09-04T00:35:27.010Z,11.57
2018-09-04T00:38:01.434Z,10.80
2018-09-04T00:40:35.938Z,11.60
2018-09-04T00:43:10.190Z,12.30
2018-09-04T00:45:44.464Z,11.97
2018-09-04T00:48:18.898Z,11.20
2018-09-04T00:50:53.320Z,11.23
2018-09-04T00:53:27.534Z,11.57
2018-09-04T00:56:02.630Z,11.13
2018-09-04T00:58:37.035Z,10.40
2018-09-04T01:01:11.293Z,9.80
2018-09-04T01:03:45.616Z,10.33
2018-09-04T01:06:19.923Z,9.70
2018-09-04T01:08:55.153Z,11.30
2018-09-04T01:11:29.945Z,10.23
2018-09-04T01:14:04.415Z,9.70
2018-09-04T01:16:38.691Z,9.73
2018-09-04T01:19:13.513Z,10.20
2018-09-04T01:21:47.810Z,9.83
2018-09-04T01:24:22.065Z,10.90
2018-09-04T01:26:56.295Z,11.30
2018-09-04T01:29:30.777Z,10.93
2018-09-04T01:32:05.780Z,10.87
2018-09-04T01:34:40.406Z,10.53
2018-09-04T01:37:14.581Z,10.60
2018-09-04T01:39:50.344Z,9.67
2018-09-04T01:42:24.630Z,10.37
2018-09-04T01:44:58.879Z,10.27
2018-09-04T01:47:33.880Z,10.97
2018-09-04T01:50:08.158Z,10.60
2018-09-04T01:52:42.448Z,10.17
2018-09-04T01:55:17.381Z,9.67
2018-09-04T01:57:51.831Z,9.47
2018-09-04T02:00:26.207Z,10.37
2018-09-04T02:03:00.631Z,10.33
2018-09-04T02:05:35.135Z,11.97
2018-09-04T02:08:09.485Z,10.90
2018-09-04T02:10:44.209Z,10.87
2018-09-04T02:13:21.458Z,11.80
2018-09-04T02:15:55.735Z,10.53
2018-09-04T02:18:30.008Z,10.83
2018-09-04T02:21:04.265Z,10.97
2018-09-04T02:23:38.698Z,11.90
2018-09-04T02:26:13.080Z,11.53
2018-09-04T02:28:47.403Z,11.73
2018-09-04T02:31:21.806Z,11.60
2018-09-04T02:33:56.162Z,10.53
2018-09-04T02:36:30.674Z,10.63
2018-09-04T02:39:07.343Z,10.37
2018-09-04T02:41:41.881Z,9.67
2018-09-04T02:44:16.282Z,10.17
2018-09-04T02:46:50.762Z,10.20
2018-09-04T02:49:25.135Z,10.43
2018-09-04T02:51:59.539Z,10.70
2018-09-04T02:54:34.062Z,10.23
2018-09-04T02:57:08.503Z,11.63
2018-09-04T02:59:42.750Z,11.20
2018-09-04T03:02:17.023Z,11.43
2018-09-04T03:04:51.876Z,10.57
2018-09-04T03:07:26.284Z,10.27
2018-09-04T03:10:00.531Z,9.70
2018-09-04T03:12:34.931Z,10.90
2018-09-04T03:15:09.214Z,10.23
2018-09-04T03:17:43.694Z,9.97
2018-09-04T03:20:17.898Z,9.83
2018-09-04T03:22:53.118Z,10.30
2018-09-04T03:25:27.451Z,10.23
2018-09-04T03:28:01.789Z,10.30
2018-09-04T03:30:36.429Z,10.30
2018-09-04T03:33:10.889Z,9.87
2018-09-04T03:35:45.267Z,10.97
2018-09-04T03:38:20.438Z,11.30
2018-09-04T03:40:54.848Z,10.30
2018-09-04T03:43:29.165Z,10.47
2018-09-04T03:46:03.508Z,10.70
2018-09-04T03:48:37.948Z,9.70
2018-09-04T03:51:12.301Z,10.37
2018-09-04T03:53:46.675Z,9.80
2018-09-04T03:56:21.190Z,9.37
2018-09-04T03:58:55.471Z,9.53
2018-09-04T04:01:29.845Z,9.70
2018-09-04T04:04:04.207Z,9.47
2018-09-04T04:06:38.614Z,8.90
2018-09-04T04:09:13.074Z,9.13
2018-09-04T04:11:47.598Z,8.97
2018-09-04T04:14:22.010Z,9.47
2018-09-04T04:16:56.258Z,9.80
2018-09-04T04:19:30.614Z,9.10
2018-09-04T04:22:05.944Z,9.00
2018-09-04T04:24:40.293Z,8.90
2018-09-04T04:27:14.560Z,9.60
2018-09-04T04:29:48.836Z,8.93
2018-09-04T04:32:23.155Z,8.93
2018-09-04T04:34:57.727Z,8.73
2018-09-04T04:37:32.064Z,8.53
2018-09-04T04:40:06.621Z,8.57
2018-09-04T04:42:41.217Z,8.90
2018-09-04T04:45:15.559Z,9.23
2018-09-04T04:47:49.900Z,9.33
2018-09-04T04:50:24.208Z,8.80
2018-09-04T04:52:58.423Z,8.43
2018-09-04T04:55:32.834Z,9.83
2018-09-04T04:58:08.039Z,9.13
2018-09-04T05:00:42.354Z,8.97
2018-09-04T05:03:16.869Z,9.43
2018-09-04T05:05:51.253Z,9.03
2018-09-04T05:08:25.503Z,9.13
2018-09-04T05:10:59.916Z,8.70
2018-09-04T05:13:34.371Z,8.10
2018-09-04T05:16:10.296Z,8.60
2018-09-04T05:18:44.916Z,9.17
2018-09-04T05:21:19.593Z,9.20
2018-09-04T05:23:54.012Z,9.20
2018-09-04T05:26:28.287Z,9.43
2018-09-04T05:29:02.651Z,9.20
2018-09-04T05:31:42.144Z,8.80
2018-09-04T05:34:16.366Z,8.30
2018-09-04T05:36:50.831Z,9.20
2018-09-04T05:39:24.978Z,10.07
2018-09-04T05:42:04.882Z,9.07
2018-09-04T05:44:39.140Z,9.47
2018-09-04T05:47:13.464Z,10.10
2018-09-04T05:49:47.728Z,10.93
2018-09-04T05:52:21.958Z,10.53
2018-09-04T05:54:56.209Z,11.43
2018-09-04T05:57:30.656Z,11.70
2018-09-04T06:00:08.407Z,11.67
2018-09-04T06:02:42.695Z,11.23
2018-09-04T06:05:17.302Z,11.67
2018-09-04T06:07:51.695Z,11.07
2018-09-04T06:10:25.903Z,10.73
2018-09-04T06:13:00.144Z,10.53
2018-09-04T06:15:35.037Z,9.97
2018-09-04T06:18:10.279Z,10.03
2018-09-04T06:20:44.599Z,9.53
2018-09-04T06:23:19.111Z,9.97
2018-09-04T06:25:53.873Z,9.73
2018-09-04T06:28:28.396Z,9.80
2018-09-04T06:31:02.771Z,9.30
2018-09-04T06:33:37.263Z,9.97
2018-09-04T06:36:11.550Z,9.30
2018-09-04T06:38:45.764Z,9.73
2018-09-04T06:41:20.055Z,9.33
2018-09-04T06:43:54.460Z,9.93
2018-09-04T06:46:28.732Z,9.70
2018-09-04T06:49:03.201Z,10.37
2018-09-04T06:51:37.573Z,9.73
2018-09-04T06:54:11.869Z,9.03
2018-09-04T06:56:46.174Z,9.50
2018-09-04T06:59:20.396Z,9.20
2018-09-04T07:01:54.615Z,9.47
2018-09-04T07:04:28.828Z,9.73
2018-09-04T07:07:03.406Z,10.17
2018-09-04T07:09:37.694Z,8.97
2018-09-04T07:12:11.949Z,9.43
2018-09-04T07:14:46.264Z,9.37
2018-09-04T07:17:20.653Z,9.60
2018-09-04T07:19:54.838Z,9.60
2018-09-04T07:22:29.135Z,9.60
2018-09-04T07:25:03.403Z,9.10
2018-09-04T07:27:38.858Z,9.00
2018-09-04T07:30:13.486Z,8.60
2018-09-04T07:32:47.828Z,9.77
2018-09-04T07:35:22.307Z,9.40
2018-09-04T07:37:56.663Z,9.50
2018-09-04T07:40:31.082Z,9.10
2018-09-04T07:43:05.614Z,9.10
2018-09-04T07:45:43.164Z,10.10
2018-09-04T07:48:17.808Z,9.37
2018-09-04T07:50:52.125Z,9.47
2018-09-04T07:53:26.355Z,9.23
2018-09-04T07:56:00.591Z,8.87
2018-09-04T07:58:35.096Z,9.93
2018-09-04T08:01:09.348Z,9.90
2018-09-04T08:03:43.590Z,9.63
2018-09-04T08:06:18.003Z,9.40
2018-09-04T08:08:52.295Z,9.03
2018-09-04T08:11:26.678Z,9.27
2018-09-04T08:14:00.954Z,9.73
2018-09-04T08:16:35.401Z,9.20
2018-09-04T08:19:09.867Z,9.10
2018-09-04T08:21:44.150Z,9.73
2018-09-04T08:24:18.360Z,10.50
2018-09-04T08:26:54.503Z,10.53
2018-09-04T08:29:29.235Z,10.97
2018-09-04T08:32:03.634Z,10.20
2018-09-04T08:34:38.242Z,10.13
2018-09-04T08:37:12.519Z,10.80
2018-09-04T08:39:46.747Z,12.00
2018-09-04T08:42:21.123Z,11.50
2018-09-04T08:44:55.358Z,11.73
2018-09-04T08:47:29.619Z,11.10
2018-09-04T08:50:03.822Z,11.40
2018-09-04T08:52:38.082Z,11.57
2018-09-04T08:55:12.491Z,12.93
2018-09-04T08:57:46.666Z,15.80
2018-09-04T09:00:21.012Z,15.70
2018-09-04T09:02:55.445Z,15.37
2018-09-04T09:05:29.743Z,15.37
2018-09-04T09:08:04.090Z,15.60
2018-09-04T09:10:38.461Z,15.57
2018-09-04T09:13:12.726Z,15.50
2018-09-04T09:15:47.153Z,15.00
2018-09-04T09:18:22.197Z,16.87
2018-09-04T09:20:56.471Z,16.70
2018-09-04T09:23:30.857Z,16.07
2018-09-04T09:26:06.063Z,15.33
2018-09-04T09:28:40.664Z,16.83
2018-09-04T09:31:15.578Z,16.17
2018-09-04T09:33:50.255Z,15.33
2018-09-04T09:36:25.083Z,16.03
2018-09-04T09:38:59.546Z,15.03
2018-09-04T09:41:33.787Z,15.80
2018-09-04T09:44:08.531Z,16.20
2018-09-04T09:46:42.796Z,16.43
2018-09-04T09:49:17.110Z,16.37
2018-09-04T09:51:51.461Z,15.60
2018-09-04T09:54:26.776Z,15.57
2018-09-04T09:57:01.265Z,15.23
2018-09-04T09:59:35.648Z,17.50
2018-09-04T10:04:17.464Z,16.43
2018-09-04T10:06:51.776Z,16.17
2018-09-04T10:09:27.351Z,17.07
2018-09-04T10:12:01.707Z,14.93
2018-09-04T10:14:36.313Z,16.60
2018-09-04T10:17:10.640Z,16.87
2018-09-04T10:19:45.088Z,16.37
2018-09-04T10:22:19.646Z,16.43
2018-09-04T10:24:53.901Z,17.03
2018-09-04T10:27:28.330Z,16.27
2018-09-04T10:30:02.775Z,15.47
2018-09-04T10:32:37.063Z,16.23
2018-09-04T10:35:11.406Z,15.40
2018-09-04T10:37:45.704Z,15.63
2018-09-04T10:40:25.750Z,16.07
2018-09-04T10:43:00.014Z,15.70
2018-09-04T10:45:39.938Z,16.23
2018-09-04T10:48:15.293Z,16.23
2018-09-04T10:50:49.802Z,15.13
2018-09-04T10:53:24.077Z,16.03
2018-09-04T10:55:58.432Z,14.47
2018-09-04T10:58:32.731Z,15.97
2018-09-04T11:01:07.058Z,16.33
2018-09-04T11:03:41.477Z,13.97
2018-09-04T11:06:15.883Z,16.07
2018-09-04T11:08:50.326Z,16.93
2018-09-04T11:11:25.636Z,15.03
2018-09-04T11:14:00.141Z,14.50
2018-09-04T11:16:34.577Z,15.37
2018-09-04T11:19:08.953Z,15.70
2018-09-04T11:21:43.193Z,15.40
2018-09-04T11:24:17.508Z,14.87
2018-09-04T11:26:51.882Z,16.60
2018-09-04T11:29:26.115Z,15.30
2018-09-04T11:32:00.537Z,14.37
2018-09-04T11:34:35.217Z,14.90
2018-09-04T11:37:09.659Z,12.67
2018-09-04T11:39:44.256Z,12.17
2018-09-04T11:42:18.668Z,12.83
2018-09-04T11:44:53.050Z,13.23
2018-09-04T11:47:27.454Z,11.17
2018-09-04T11:50:02.079Z,13.27
2018-09-04T11:52:36.490Z,11.40
2018-09-04T11:55:11.211Z,12.90
2018-09-04T11:57:46.922Z,12.33
2018-09-04T12:00:51.783Z,12.80
2018-09-04T12:03:26.176Z,12.37
2018-09-04T12:06:00.632Z,12.70
2018-09-04T12:08:35.256Z,12.70
2018-09-04T12:11:09.744Z,11.87
2018-09-04T12:13:44.294Z,11.80
2018-09-04T12:16:18.683Z,12.00
2018-09-04T12:18:53.331Z,11.00
2018-09-04T12:21:27.690Z,10.73
2018-09-04T12:24:01.964Z,10.53
2018-09-04T12:26:36.679Z,8.87
2018-09-04T12:29:11.113Z,9.93
2018-09-04T12:31:45.539Z,9.57
2018-09-04T12:34:19.865Z,9.43
2018-09-04T12:36:54.308Z,9.70
2018-09-04T12:39:28.672Z,9.93
2018-09-04T12:42:02.883Z,9.53
2018-09-04T12:44:37.126Z,9.23
2018-09-04T12:47:11.433Z,10.03
2018-09-04T12:49:45.676Z,9.43
2018-09-04T12:52:20.008Z,9.10
2018-09-04T12:54:54.433Z,10.33
2018-09-04T12:57:28.708Z,10.40
2018-09-04T13:00:03.110Z,10.67
2018-09-04T13:02:37.435Z,8.87
2018-09-04T13:05:11.747Z,8.90
2018-09-04T13:07:45.983Z,9.10
2018-09-04T13:10:20.344Z,8.83
2018-09-04T13:12:54.570Z,8.97
2018-09-04T13:15:28.843Z,9.00
2018-09-04T13:18:03.164Z,7.93
2018-09-04T13:20:37.472Z,8.90
2018-09-04T13:23:12.859Z,8.60
2018-09-04T13:25:47.320Z,8.40
2018-09-04T13:28:21.607Z,8.40
2018-09-04T13:30:55.938Z,7.83
2018-09-04T13:33:30.172Z,7.93
2018-09-04T13:36:04.513Z,7.63
2018-09-04T13:38:38.766Z,7.47
2018-09-04T13:41:13.004Z,7.43
2018-09-04T13:43:47.224Z,6.17
2018-09-04T13:46:21.592Z,6.57
2018-09-04T13:48:57.424Z,6.43
2018-09-04T13:51:32.694Z,8.20
2018-09-04T13:54:08.581Z,6.83
2018-09-04T13:56:44.142Z,7.63
2018-09-04T13:59:18.935Z,7.37
2018-09-04T14:01:54.753Z,7.00
2018-09-04T14:04:29.246Z,7.70
2018-09-04T14:07:03.502Z,7.40
2018-09-04T14:09:37.983Z,7.60
2018-09-04T14:12:12.385Z,7.77
2018-09-04T14:14:46.878Z,7.87
2018-09-04T14:17:21.502Z,7.87
2018-09-04T14:19:55.742Z,7.77
2018-09-04T14:22:30.149Z,7.13
2018-09-04T14:25:04.512Z,8.07
2018-09-04T14:27:38.831Z,7.80
2018-09-04T14:30:16.348Z,8.40
2018-09-04T14:32:47.441Z,8.50
2018-09-04T14:35:22.071Z,7.60
2018-09-04T14:37:56.611Z,8.40
2018-09-04T14:40:30.802Z,7.60
2018-09-04T14:43:05.657Z,7.90
2018-09-04T14:45:39.930Z,8.10
2018-09-04T14:48:14.247Z,8.03
2018-09-04T14:50:51.994Z,8.40
2018-09-04T14:53:26.345Z,8.27
2018-09-04T14:56:00.562Z,8.23
2018-09-04T14:58:34.882Z,8.53
2018-09-04T15:01:09.490Z,7.90
2018-09-04T15:03:43.938Z,8.50
2018-09-04T15:06:18.244Z,9.20
2018-09-04T15:08:52.727Z,8.33
2018-09-04T15:11:27.067Z,8.33
2018-09-04T15:14:01.597Z,8.30
2018-09-04T15:16:36.019Z,7.87
2018-09-04T15:19:10.380Z,7.60
2018-09-04T15:21:44.637Z,8.53
2018-09-04T15:24:18.914Z,8.23
2018-09-04T15:26:53.360Z,8.33
2018-09-04T15:29:27.703Z,8.47
2018-09-04T15:32:02.219Z,8.83
2018-09-04T15:34:36.511Z,8.77
2018-09-04T15:37:10.767Z,9.03
2018-09-04T15:39:45.036Z,8.53
2018-09-04T15:42:19.461Z,8.20
2018-09-04T15:44:53.913Z,8.17
2018-09-04T15:47:28.162Z,8.10
2018-09-04T15:50:02.490Z,9.03
2018-09-04T15:52:36.815Z,8.80
2018-09-04T15:55:11.187Z,9.10
2018-09-04T15:57:45.448Z,8.30
2018-09-04T16:00:19.851Z,8.40
2018-09-04T16:02:54.235Z,8.43
2018-09-04T16:05:28.501Z,8.57
2018-09-04T16:08:02.738Z,9.60
2018-09-04T16:10:36.997Z,8.57
2018-09-04T16:13:11.568Z,8.83
2018-09-04T16:15:46.086Z,9.50
2018-09-04T16:18:20.467Z,9.03
2018-09-04T16:20:54.646Z,10.27
2018-09-04T16:23:29.117Z,9.70
2018-09-04T16:26:03.522Z,10.43
2018-09-04T16:28:38.154Z,11.00
2018-09-04T16:31:12.490Z,10.20
2018-09-04T16:33:46.764Z,10.07
2018-09-04T16:36:21.186Z,10.40
2018-09-04T16:38:55.453Z,10.60
2018-09-04T16:41:29.894Z,10.70
2018-09-04T16:44:04.534Z,10.60
2018-09-04T16:46:38.865Z,10.33
2018-09-04T16:49:13.659Z,9.77
2018-09-04T16:51:47.987Z,10.43
2018-09-04T16:54:24.197Z,10.50
2018-09-04T16:56:58.625Z,10.27
2018-09-04T16:59:33.059Z,10.93
2018-09-04T17:02:07.424Z,10.00
2018-09-04T17:04:41.848Z,9.93
2018-09-04T17:07:16.114Z,10.33
2018-09-04T17:09:50.517Z,10.27
2018-09-04T17:12:24.943Z,10.03
2018-09-04T17:14:59.214Z,10.47
2018-09-04T17:17:33.561Z,9.70
2018-09-04T17:20:08.128Z,10.07
2018-09-04T17:22:42.419Z,9.70
2018-09-04T17:25:16.787Z,10.20
2018-09-04T17:27:51.074Z,10.53
2018-09-04T17:30:26.364Z,10.40
2018-09-04T17:33:00.658Z,10.23
2018-09-04T17:35:34.898Z,11.30
2018-09-04T17:38:09.403Z,11.20
2018-09-04T17:40:44.948Z,10.63
2018-09-04T17:43:19.261Z,9.80
2018-09-04T17:45:53.703Z,9.87
2018-09-04T17:48:29.354Z,10.73
2018-09-04T17:51:03.757Z,10.97
2018-09-04T17:53:38.015Z,10.77
2018-09-04T17:56:12.295Z,9.93
2018-09-04T17:58:46.712Z,10.33
2018-09-04T18:01:21.203Z,10.90
2018-09-04T18:03:55.536Z,10.50
2018-09-04T18:06:29.851Z,10.30
2018-09-04T18:09:05.575Z,11.17
2018-09-04T18:11:39.997Z,10.63
2018-09-04T18:14:14.243Z,10.80
2018-09-04T18:16:48.796Z,10.47
2018-09-04T18:19:23.241Z,10.23
2018-09-04T18:21:57.648Z,11.10
2018-09-04T18:24:31.872Z,11.00
2018-09-04T18:27:06.112Z,11.27
2018-09-04T18:29:40.361Z,11.37
2018-09-04T18:32:14.572Z,11.23
2018-09-04T18:34:48.878Z,11.43
2018-09-04T18:37:23.360Z,11.50
2018-09-04T18:39:57.616Z,11.70
2018-09-04T18:42:33.044Z,11.60
2018-09-04T18:45:07.744Z,11.67
2018-09-04T18:47:41.988Z,11.57
2018-09-04T18:50:16.391Z,10.93
2018-09-04T18:52:51.179Z,12.30
2018-09-04T18:55:25.669Z,11.40
2018-09-04T18:57:59.945Z,11.07
2018-09-04T19:00:34.310Z,11.47
2018-09-04T19:03:08.678Z,12.40
2018-09-04T19:05:42.947Z,12.37
2018-09-04T19:08:17.156Z,12.03
2018-09-04T19:10:51.470Z,12.70
2018-09-04T19:13:25.798Z,11.37
2018-09-04T19:16:01.344Z,11.70
2018-09-04T19:18:35.726Z,12.63
2018-09-04T19:21:10.079Z,12.63
2018-09-04T19:23:44.432Z,12.70
2018-09-04T19:26:18.703Z,11.70
2018-09-04T19:28:53.086Z,11.87
2018-09-04T19:31:27.328Z,12.07
2018-09-04T19:34:01.677Z,12.43
2018-09-04T19:36:36.052Z,12.40
2018-09-04T19:39:10.983Z,12.70
2018-09-04T19:41:45.291Z,12.43
2018-09-04T19:44:20.036Z,12.17
2018-09-04T19:46:54.519Z,12.17
2018-09-04T19:49:29.070Z,12.47
2018-09-04T19:52:03.711Z,12.23
2018-09-04T19:54:38.233Z,12.37
2018-09-04T19:57:12.525Z,12.93
2018-09-04T19:59:46.854Z,12.37
2018-09-04T20:02:21.360Z,11.23
2018-09-04T20:04:55.829Z,12.67
2018-09-04T20:07:30.285Z,13.00
2018-09-04T20:10:04.690Z,12.47
2018-09-04T20:12:39.017Z,13.23
2018-09-04T20:15:13.382Z,14.03
2018-09-04T20:17:47.690Z,13.63
2018-09-04T20:20:22.122Z,13.53
2018-09-04T20:22:56.321Z,12.80
2018-09-04T20:25:30.711Z,12.77
2018-09-04T20:28:05.070Z,12.80
2018-09-04T20:30:39.358Z,12.73
2018-09-04T20:33:13.642Z,12.17
2018-09-04T20:35:47.989Z,13.77
2018-09-04T20:38:22.245Z,13.93
2018-09-04T20:40:56.651Z,13.90
2018-09-04T20:43:31.200Z,13.00
2018-09-04T20:46:05.582Z,12.83
2018-09-04T20:48:40.048Z,12.77
2018-09-04T20:51:14.472Z,12.90
2018-09-04T20:53:48.718Z,13.40
2018-09-04T20:56:23.023Z,14.70
2018-09-04T20:59:08.759Z,14.43
2018-09-04T21:01:54.482Z,14.93
2018-09-04T21:04:40.149Z,14.83
2018-09-04T21:07:18.794Z,14.07
2018-09-04T21:09:58.487Z,14.47
2018-09-04T21:12:32.752Z,15.20
2018-09-04T21:15:07.209Z,15.37
2018-09-04T21:17:41.712Z,14.57
2018-09-04T21:20:16.162Z,15.27
2018-09-04T21:22:50.645Z,15.10
2018-09-04T21:25:25.171Z,14.90
2018-09-04T21:27:59.465Z,15.80
2018-09-04T21:30:33.779Z,16.17
2018-09-04T21:33:08.123Z,15.13
2018-09-04T21:35:42.402Z,15.87
2018-09-04T21:38:16.770Z,15.30
2018-09-04T21:40:51.342Z,14.43
2018-09-04T21:43:25.655Z,14.83
2018-09-04T21:46:00.047Z,14.77
2018-09-04T21:48:34.499Z,15.87
2018-09-04T21:51:08.894Z,15.10
2018-09-04T21:53:43.169Z,15.77
2018-09-04T21:56:17.477Z,16.53
2018-09-04T21:58:51.955Z,15.50
2018-09-04T22:01:26.278Z,14.83
2018-09-04T22:04:00.681Z,15.13
2018-09-04T22:06:35.012Z,16.47
2018-09-04T22:09:10.091Z,16.13
2018-09-04T22:11:44.512Z,14.63
2018-09-04T22:14:18.809Z,15.63
2018-09-04T22:16:53.250Z,15.90
2018-09-04T22:19:27.502Z,15.50
2018-09-04T22:22:01.953Z,15.53
2018-09-04T22:24:36.791Z,15.83
2018-09-04T22:27:11.152Z,15.03
2018-09-04T22:29:46.003Z,15.70
2018-09-04T22:32:20.448Z,16.57
2018-09-04T22:34:54.702Z,14.90
2018-09-04T22:37:29.049Z,16.63
2018-09-04T22:40:03.339Z,15.77
2018-09-04T22:42:37.876Z,15.30
2018-09-04T22:45:12.138Z,16.23
2018-09-04T22:47:46.403Z,16.63
2018-09-04T22:50:25.980Z,15.90
2018-09-04T22:53:09.076Z,17.70
2018-09-04T22:55:43.384Z,16.00
2018-09-04T22:58:17.640Z,15.30
2018-09-04T23:00:52.210Z,16.40
2018-09-04T23:03:26.548Z,16.87
2018-09-04T23:06:00.974Z,16.83
2018-09-04T23:08:35.200Z,17.03
2018-09-04T23:11:09.695Z,16.13
2018-09-04T23:13:44.046Z,17.43
2018-09-04T23:16:18.444Z,18.20
2018-09-04T23:18:52.881Z,18.07
2018-09-04T23:21:27.122Z,17.70
2018-09-04T23:24:02.404Z,17.30
2018-09-04T23:26:36.659Z,16.40
2018-09-04T23:29:10.907Z,16.83
2018-09-04T23:31:45.158Z,18.37
2018-09-04T23:34:20.678Z,17.87
2018-09-04T23:36:55.148Z,17.77
2018-09-04T23:39:30.770Z,17.93
2018-09-04T23:42:05.252Z,18.30
2018-09-04T23:44:39.546Z,18.57
2018-09-04T23:47:13.930Z,20.13
2018-09-04T23:49:48.309Z,18.50
2018-09-04T23:52:22.928Z,21.07
2018-09-04T23:54:57.334Z,19.37
2018-09-04T23:57:31.590Z,19.57
